sensor_id;sensor_type;location;lat;lon;timestamp;P1;durP1;ratioP1;P2;durP2;ratioP2
48002;SDS011;33768;48.578;11.574;2023-09-07T00:03:01;6.90;;;4.80;;
48002;SDS011;33768;48.578;11.574;2023-09-07T00:06:05;7.77;;;4.80;;
48002;SDS011;33768;48.578;11.574;2023-09-07T00:09:09;5.17;;;4.10;;
48002;SDS011;33768;48.578;11.574;2023-09-07T00:12:15;6.07;;;4.40;;
48002;SDS011;33768;48.578;11.574;2023-09-07T00:15:19;5.10;;;4.60;;
48002;SDS011;33768;48.578;11.574;2023-09-07T00:18:25;7.13;;;4.60;;
48002;SDS011;33768;48.578;11.574;2023-09-07T00:21:29;5.53;;;4.70;;
48002;SDS011;33768;48.578;11.574;2023-09-07T00:24:33;6.97;;;4.80;;
48002;SDS011;33768;48.578;11.574;2023-09-07T00:27:37;8.33;;;4.90;;
48002;SDS011;33768;48.578;11.574;2023-09-07T00:30:41;6.03;;;4.37;;
48002;SDS011;33768;48.578;11.574;2023-09-07T00:33:45;6.60;;;4.43;;
48002;SDS011;33768;48.578;11.574;2023-09-07T00:36:50;5.10;;;4.60;;
48002;SDS011;33768;48.578;11.574;2023-09-07T00:39:54;6.43;;;5.40;;
48002;SDS011;33768;48.578;11.574;2023-09-07T00:42:58;8.27;;;4.90;;
48002;SDS011;33768;48.578;11.574;2023-09-07T00:46:03;5.47;;;4.20;;
48002;SDS011;33768;48.578;11.574;2023-09-07T00:49:07;5.17;;;4.67;;
48002;SDS011;33768;48.578;11.574;2023-09-07T00:52:11;7.30;;;4.83;;
48002;SDS011;33768;48.578;11.574;2023-09-07T00:55:16;9.87;;;5.70;;
48002;SDS011;33768;48.578;11.574;2023-09-07T00:58:21;6.10;;;5.50;;
48002;SDS011;33768;48.578;11.574;2023-09-07T01:01:26;6.47;;;5.37;;
48002;SDS011;33768;48.578;11.574;2023-09-07T01:04:30;8.53;;;5.93;;
48002;SDS011;33768;48.578;11.574;2023-09-07T01:07:39;6.10;;;5.17;;
48002;SDS011;33768;48.578;11.574;2023-09-07T01:10:47;7.73;;;5.83;;
48002;SDS011;33768;48.578;11.574;2023-09-07T01:13:51;7.03;;;5.30;;
48002;SDS011;33768;48.578;11.574;2023-09-07T01:16:58;6.10;;;5.00;;
48002;SDS011;33768;48.578;11.574;2023-09-07T01:20:03;8.80;;;5.53;;
48002;SDS011;33768;48.578;11.574;2023-09-07T01:23:13;6.13;;;5.03;;
48002;SDS011;33768;48.578;11.574;2023-09-07T01:26:17;5.70;;;4.73;;
48002;SDS011;33768;48.578;11.574;2023-09-07T01:29:21;8.57;;;5.20;;
48002;SDS011;33768;48.578;11.574;2023-09-07T01:32:25;8.90;;;5.27;;
48002;SDS011;33768;48.578;11.574;2023-09-07T01:35:31;9.77;;;4.80;;
48002;SDS011;33768;48.578;11.574;2023-09-07T01:38:37;5.33;;;4.73;;
48002;SDS011;33768;48.578;11.574;2023-09-07T01:41:42;5.93;;;4.43;;
48002;SDS011;33768;48.578;11.574;2023-09-07T01:44:46;6.93;;;4.73;;
48002;SDS011;33768;48.578;11.574;2023-09-07T01:47:50;5.17;;;4.67;;
48002;SDS011;33768;48.578;11.574;2023-09-07T01:50:56;5.30;;;4.53;;
48002;SDS011;33768;48.578;11.574;2023-09-07T01:54:00;5.90;;;5.23;;
48002;SDS011;33768;48.578;11.574;2023-09-07T01:57:04;7.50;;;4.93;;
48002;SDS011;33768;48.578;11.574;2023-09-07T02:00:08;5.87;;;5.10;;
48002;SDS011;33768;48.578;11.574;2023-09-07T02:03:17;10.10;;;4.90;;
48002;SDS011;33768;48.578;11.574;2023-09-07T02:06:21;13.40;;;5.73;;
48002;SDS011;33768;48.578;11.574;2023-09-07T02:09:25;6.87;;;4.60;;
48002;SDS011;33768;48.578;11.574;2023-09-07T02:12:29;11.53;;;5.03;;
48002;SDS011;33768;48.578;11.574;2023-09-07T02:15:34;5.20;;;4.30;;
48002;SDS011;33768;48.578;11.574;2023-09-07T02:18:44;4.90;;;4.50;;
48002;SDS011;33768;48.578;11.574;2023-09-07T02:21:50;11.53;;;5.17;;
48002;SDS011;33768;48.578;11.574;2023-09-07T02:24:56;5.20;;;4.70;;
48002;SDS011;33768;48.578;11.574;2023-09-07T02:28:01;7.33;;;5.50;;
48002;SDS011;33768;48.578;11.574;2023-09-07T02:31:05;7.83;;;5.40;;
48002;SDS011;33768;48.578;11.574;2023-09-07T02:34:10;7.03;;;5.33;;
48002;SDS011;33768;48.578;11.574;2023-09-07T02:37:14;8.33;;;4.90;;
48002;SDS011;33768;48.578;11.574;2023-09-07T02:40:19;5.77;;;4.80;;
48002;SDS011;33768;48.578;11.574;2023-09-07T02:43:24;7.03;;;4.90;;
48002;SDS011;33768;48.578;11.574;2023-09-07T02:46:28;5.80;;;4.97;;
48002;SDS011;33768;48.578;11.574;2023-09-07T02:49:32;6.80;;;4.63;;
48002;SDS011;33768;48.578;11.574;2023-09-07T02:52:36;6.10;;;5.37;;
48002;SDS011;33768;48.578;11.574;2023-09-07T02:55:41;9.33;;;5.77;;
48002;SDS011;33768;48.578;11.574;2023-09-07T02:58:46;7.30;;;5.83;;
48002;SDS011;33768;48.578;11.574;2023-09-07T03:01:50;8.10;;;5.70;;
48002;SDS011;33768;48.578;11.574;2023-09-07T03:04:55;7.30;;;5.27;;
48002;SDS011;33768;48.578;11.574;2023-09-07T03:08:02;6.23;;;5.47;;
48002;SDS011;33768;48.578;11.574;2023-09-07T03:11:08;6.30;;;5.47;;
48002;SDS011;33768;48.578;11.574;2023-09-07T03:14:13;8.87;;;5.57;;
48002;SDS011;33768;48.578;11.574;2023-09-07T03:17:17;5.97;;;5.37;;
48002;SDS011;33768;48.578;11.574;2023-09-07T03:20:22;6.07;;;5.50;;
48002;SDS011;33768;48.578;11.574;2023-09-07T03:23:29;8.20;;;6.00;;
48002;SDS011;33768;48.578;11.574;2023-09-07T03:26:35;7.87;;;6.30;;
48002;SDS011;33768;48.578;11.574;2023-09-07T03:29:39;5.90;;;5.30;;
48002;SDS011;33768;48.578;11.574;2023-09-07T03:32:43;6.37;;;5.77;;
48002;SDS011;33768;48.578;11.574;2023-09-07T03:35:47;6.97;;;6.00;;
48002;SDS011;33768;48.578;11.574;2023-09-07T03:38:51;7.80;;;6.10;;
48002;SDS011;33768;48.578;11.574;2023-09-07T03:41:56;11.50;;;7.07;;
48002;SDS011;33768;48.578;11.574;2023-09-07T03:45:01;10.23;;;6.87;;
48002;SDS011;33768;48.578;11.574;2023-09-07T03:48:05;8.43;;;6.23;;
48002;SDS011;33768;48.578;11.574;2023-09-07T03:51:11;7.83;;;6.33;;
48002;SDS011;33768;48.578;11.574;2023-09-07T03:54:15;7.70;;;6.43;;
48002;SDS011;33768;48.578;11.574;2023-09-07T03:57:19;6.77;;;6.07;;
48002;SDS011;33768;48.578;11.574;2023-09-07T04:00:24;7.27;;;6.57;;
48002;SDS011;33768;48.578;11.574;2023-09-07T04:03:28;13.57;;;7.40;;
48002;SDS011;33768;48.578;11.574;2023-09-07T04:06:32;8.00;;;6.07;;
48002;SDS011;33768;48.578;11.574;2023-09-07T04:09:36;7.40;;;5.83;;
48002;SDS011;33768;48.578;11.574;2023-09-07T04:12:40;6.17;;;5.57;;
48002;SDS011;33768;48.578;11.574;2023-09-07T04:15:44;15.10;;;6.17;;
48002;SDS011;33768;48.578;11.574;2023-09-07T04:18:49;6.67;;;5.47;;
48002;SDS011;33768;48.578;11.574;2023-09-07T04:21:54;7.37;;;5.67;;
48002;SDS011;33768;48.578;11.574;2023-09-07T04:24:58;6.50;;;5.80;;
48002;SDS011;33768;48.578;11.574;2023-09-07T04:28:02;6.60;;;6.00;;
48002;SDS011;33768;48.578;11.574;2023-09-07T04:31:07;8.60;;;5.13;;
48002;SDS011;33768;48.578;11.574;2023-09-07T04:34:11;7.20;;;5.33;;
48002;SDS011;33768;48.578;11.574;2023-09-07T04:37:15;7.07;;;5.13;;
48002;SDS011;33768;48.578;11.574;2023-09-07T04:40:19;8.87;;;5.93;;
48002;SDS011;33768;48.578;11.574;2023-09-07T04:43:23;6.13;;;5.53;;
48002;SDS011;33768;48.578;11.574;2023-09-07T04:46:27;7.23;;;6.20;;
48002;SDS011;33768;48.578;11.574;2023-09-07T04:49:32;8.67;;;5.47;;
48002;SDS011;33768;48.578;11.574;2023-09-07T04:52:37;11.20;;;6.10;;
48002;SDS011;33768;48.578;11.574;2023-09-07T04:55:42;6.53;;;5.30;;
48002;SDS011;33768;48.578;11.574;2023-09-07T04:58:46;7.80;;;6.27;;
48002;SDS011;33768;48.578;11.574;2023-09-07T05:01:49;7.73;;;6.37;;
48002;SDS011;33768;48.578;11.574;2023-09-07T05:04:54;6.27;;;5.50;;
48002;SDS011;33768;48.578;11.574;2023-09-07T05:07:58;7.70;;;5.83;;
48002;SDS011;33768;48.578;11.574;2023-09-07T05:11:02;7.37;;;5.40;;
48002;SDS011;33768;48.578;11.574;2023-09-07T05:14:07;5.87;;;5.23;;
48002;SDS011;33768;48.578;11.574;2023-09-07T05:17:11;9.50;;;6.10;;
48002;SDS011;33768;48.578;11.574;2023-09-07T05:20:16;6.07;;;5.47;;
48002;SDS011;33768;48.578;11.574;2023-09-07T05:23:21;6.13;;;5.53;;
48002;SDS011;33768;48.578;11.574;2023-09-07T05:26:26;8.77;;;6.03;;
48002;SDS011;33768;48.578;11.574;2023-09-07T05:29:31;15.20;;;5.60;;
48002;SDS011;33768;48.578;11.574;2023-09-07T05:32:35;15.07;;;6.40;;
48002;SDS011;33768;48.578;11.574;2023-09-07T05:35:41;16.73;;;6.67;;
48002;SDS011;33768;48.578;11.574;2023-09-07T05:38:49;18.93;;;6.70;;
48002;SDS011;33768;48.578;11.574;2023-09-07T05:41:53;16.30;;;6.33;;
48002;SDS011;33768;48.578;11.574;2023-09-07T05:44:57;12.60;;;6.00;;
48002;SDS011;33768;48.578;11.574;2023-09-07T05:48:02;12.13;;;6.43;;
48002;SDS011;33768;48.578;11.574;2023-09-07T05:51:07;10.53;;;6.83;;
48002;SDS011;33768;48.578;11.574;2023-09-07T05:54:11;11.53;;;6.93;;
48002;SDS011;33768;48.578;11.574;2023-09-07T05:57:15;9.93;;;6.63;;
48002;SDS011;33768;48.578;11.574;2023-09-07T06:00:19;11.17;;;6.97;;
48002;SDS011;33768;48.578;11.574;2023-09-07T06:03:25;12.97;;;7.87;;
48002;SDS011;33768;48.578;11.574;2023-09-07T06:06:30;16.10;;;8.93;;
48002;SDS011;33768;48.578;11.574;2023-09-07T06:09:34;10.20;;;8.63;;
48002;SDS011;33768;48.578;11.574;2023-09-07T06:12:39;12.80;;;9.07;;
48002;SDS011;33768;48.578;11.574;2023-09-07T06:15:43;12.67;;;9.83;;
48002;SDS011;33768;48.578;11.574;2023-09-07T06:18:47;11.43;;;9.57;;
48002;SDS011;33768;48.578;11.574;2023-09-07T06:21:51;18.57;;;10.07;;
48002;SDS011;33768;48.578;11.574;2023-09-07T06:24:56;15.13;;;10.70;;
48002;SDS011;33768;48.578;11.574;2023-09-07T06:28:00;15.27;;;11.17;;
48002;SDS011;33768;48.578;11.574;2023-09-07T06:31:04;19.43;;;11.13;;
48002;SDS011;33768;48.578;11.574;2023-09-07T06:34:08;17.77;;;10.93;;
48002;SDS011;33768;48.578;11.574;2023-09-07T06:37:12;24.33;;;13.17;;
48002;SDS011;33768;48.578;11.574;2023-09-07T06:40:17;21.30;;;13.50;;
48002;SDS011;33768;48.578;11.574;2023-09-07T06:43:22;19.77;;;12.13;;
48002;SDS011;33768;48.578;11.574;2023-09-07T06:46:27;22.47;;;12.57;;
48002;SDS011;33768;48.578;11.574;2023-09-07T06:49:31;19.83;;;13.07;;
48002;SDS011;33768;48.578;11.574;2023-09-07T06:52:36;17.27;;;12.57;;
48002;SDS011;33768;48.578;11.574;2023-09-07T06:55:41;18.43;;;11.37;;
48002;SDS011;33768;48.578;11.574;2023-09-07T06:58:45;20.20;;;10.97;;
48002;SDS011;33768;48.578;11.574;2023-09-07T07:01:49;19.23;;;10.23;;
48002;SDS011;33768;48.578;11.574;2023-09-07T07:04:53;14.17;;;7.83;;
48002;SDS011;33768;48.578;11.574;2023-09-07T07:07:58;9.53;;;6.90;;
48002;SDS011;33768;48.578;11.574;2023-09-07T07:11:03;14.77;;;7.03;;
48002;SDS011;33768;48.578;11.574;2023-09-07T07:14:08;12.57;;;6.10;;
48002;SDS011;33768;48.578;11.574;2023-09-07T07:17:13;9.30;;;5.27;;
48002;SDS011;33768;48.578;11.574;2023-09-07T07:20:17;7.40;;;4.87;;
48002;SDS011;33768;48.578;11.574;2023-09-07T07:23:21;4.10;;;3.70;;
48002;SDS011;33768;48.578;11.574;2023-09-07T07:26:26;4.63;;;3.80;;
48002;SDS011;33768;48.578;11.574;2023-09-07T07:29:30;6.13;;;3.83;;
48002;SDS011;33768;48.578;11.574;2023-09-07T07:32:34;4.50;;;3.97;;
48002;SDS011;33768;48.578;11.574;2023-09-07T07:35:38;6.77;;;3.63;;
48002;SDS011;33768;48.578;11.574;2023-09-07T07:38:44;5.37;;;3.57;;
48002;SDS011;33768;48.578;11.574;2023-09-07T07:41:48;5.23;;;3.73;;
48002;SDS011;33768;48.578;11.574;2023-09-07T07:44:52;18.30;;;4.50;;
48002;SDS011;33768;48.578;11.574;2023-09-07T07:47:56;5.07;;;3.30;;
48002;SDS011;33768;48.578;11.574;2023-09-07T07:51:04;5.57;;;3.40;;
48002;SDS011;33768;48.578;11.574;2023-09-07T07:54:09;4.53;;;3.40;;
48002;SDS011;33768;48.578;11.574;2023-09-07T07:57:13;8.47;;;3.23;;
48002;SDS011;33768;48.578;11.574;2023-09-07T08:00:18;5.77;;;3.43;;
48002;SDS011;33768;48.578;11.574;2023-09-07T08:03:29;4.67;;;3.93;;
48002;SDS011;33768;48.578;11.574;2023-09-07T08:06:34;7.00;;;3.50;;
48002;SDS011;33768;48.578;11.574;2023-09-07T08:09:39;6.30;;;3.63;;
48002;SDS011;33768;48.578;11.574;2023-09-07T08:12:43;6.03;;;3.33;;
48002;SDS011;33768;48.578;11.574;2023-09-07T08:15:48;7.40;;;3.77;;
48002;SDS011;33768;48.578;11.574;2023-09-07T08:18:53;24.60;;;5.40;;
48002;SDS011;33768;48.578;11.574;2023-09-07T08:21:58;24.70;;;4.73;;
48002;SDS011;33768;48.578;11.574;2023-09-07T08:25:02;7.73;;;4.43;;
48002;SDS011;33768;48.578;11.574;2023-09-07T08:28:07;12.60;;;3.80;;
48002;SDS011;33768;48.578;11.574;2023-09-07T08:31:11;5.03;;;3.20;;
48002;SDS011;33768;48.578;11.574;2023-09-07T08:34:17;6.30;;;3.10;;
48002;SDS011;33768;48.578;11.574;2023-09-07T08:37:24;29.10;;;4.63;;
48002;SDS011;33768;48.578;11.574;2023-09-07T08:40:28;7.70;;;3.20;;
48002;SDS011;33768;48.578;11.574;2023-09-07T08:43:34;4.37;;;3.17;;
48002;SDS011;33768;48.578;11.574;2023-09-07T08:46:44;17.03;;;4.10;;
48002;SDS011;33768;48.578;11.574;2023-09-07T08:49:49;10.68;;;3.20;;
48002;SDS011;33768;48.578;11.574;2023-09-07T08:52:54;5.28;;;3.20;;
48002;SDS011;33768;48.578;11.574;2023-09-07T08:55:58;4.55;;;3.40;;
48002;SDS011;33768;48.578;11.574;2023-09-07T08:59:05;12.27;;;3.08;;
48002;SDS011;33768;48.578;11.574;2023-09-07T09:02:09;5.05;;;3.40;;
48002;SDS011;33768;48.578;11.574;2023-09-07T09:05:15;5.80;;;3.00;;
48002;SDS011;33768;48.578;11.574;2023-09-07T09:08:19;11.38;;;3.50;;
48002;SDS011;33768;48.578;11.574;2023-09-07T09:11:27;4.80;;;2.85;;
48002;SDS011;33768;48.578;11.574;2023-09-07T09:14:31;5.13;;;3.20;;
48002;SDS011;33768;48.578;11.574;2023-09-07T09:17:35;6.38;;;3.13;;
48002;SDS011;33768;48.578;11.574;2023-09-07T09:20:40;3.65;;;2.97;;
48002;SDS011;33768;48.578;11.574;2023-09-07T09:23:44;19.55;;;3.78;;
48002;SDS011;33768;48.578;11.574;2023-09-07T09:26:48;3.08;;;2.60;;
48002;SDS011;33768;48.578;11.574;2023-09-07T09:29:52;43.33;;;4.95;;
48002;SDS011;33768;48.578;11.574;2023-09-07T09:32:56;21.60;;;3.60;;
48002;SDS011;33768;48.578;11.574;2023-09-07T09:36:02;7.22;;;2.85;;
48002;SDS011;33768;48.578;11.574;2023-09-07T09:39:06;4.03;;;2.83;;
48002;SDS011;33768;48.578;11.574;2023-09-07T09:42:10;5.90;;;2.92;;
48002;SDS011;33768;48.578;11.574;2023-09-07T09:45:16;16.25;;;3.97;;
48002;SDS011;33768;48.578;11.574;2023-09-07T09:48:21;10.77;;;3.95;;
48002;SDS011;33768;48.578;11.574;2023-09-07T09:51:26;4.82;;;2.65;;
48002;SDS011;33768;48.578;11.574;2023-09-07T09:54:32;7.10;;;3.20;;
48002;SDS011;33768;48.578;11.574;2023-09-07T09:57:39;5.80;;;2.60;;
48002;SDS011;33768;48.578;11.574;2023-09-07T10:00:46;4.38;;;2.55;;
48002;SDS011;33768;48.578;11.574;2023-09-07T10:03:53;10.45;;;3.00;;
48002;SDS011;33768;48.578;11.574;2023-09-07T10:06:59;2.80;;;2.55;;
48002;SDS011;33768;48.578;11.574;2023-09-07T10:10:09;4.50;;;2.90;;
48002;SDS011;33768;48.578;11.574;2023-09-07T10:13:16;4.78;;;3.20;;
48002;SDS011;33768;48.578;11.574;2023-09-07T10:16:52;6.85;;;3.47;;
48002;SDS011;33768;48.578;11.574;2023-09-07T10:20:03;6.53;;;3.70;;
48002;SDS011;33768;48.578;11.574;2023-09-07T10:23:11;4.25;;;2.67;;
48002;SDS011;33768;48.578;11.574;2023-09-07T10:26:15;5.93;;;3.10;;
48002;SDS011;33768;48.578;11.574;2023-09-07T10:29:20;10.43;;;3.30;;
48002;SDS011;33768;48.578;11.574;2023-09-07T10:32:25;3.35;;;3.00;;
48002;SDS011;33768;48.578;11.574;2023-09-07T10:35:29;3.75;;;2.72;;
48002;SDS011;33768;48.578;11.574;2023-09-07T10:38:39;4.25;;;2.90;;
48002;SDS011;33768;48.578;11.574;2023-09-07T10:41:44;3.00;;;2.70;;
48002;SDS011;33768;48.578;11.574;2023-09-07T10:44:49;3.78;;;2.45;;
48002;SDS011;33768;48.578;11.574;2023-09-07T10:47:53;4.10;;;2.60;;
48002;SDS011;33768;48.578;11.574;2023-09-07T10:50:57;3.22;;;2.92;;
48002;SDS011;33768;48.578;11.574;2023-09-07T10:54:01;5.97;;;3.25;;
48002;SDS011;33768;48.578;11.574;2023-09-07T10:57:07;3.17;;;2.88;;
48002;SDS011;33768;48.578;11.574;2023-09-07T11:00:13;3.22;;;2.92;;
48002;SDS011;33768;48.578;11.574;2023-09-07T11:03:18;7.57;;;2.90;;
48002;SDS011;33768;48.578;11.574;2023-09-07T11:06:22;5.50;;;2.85;;
48002;SDS011;33768;48.578;11.574;2023-09-07T11:09:26;4.38;;;3.05;;
48002;SDS011;33768;48.578;11.574;2023-09-07T11:12:35;9.77;;;3.35;;
48002;SDS011;33768;48.578;11.574;2023-09-07T11:15:41;10.38;;;3.05;;
48002;SDS011;33768;48.578;11.574;2023-09-07T11:18:46;3.33;;;2.45;;
48002;SDS011;33768;48.578;11.574;2023-09-07T11:21:53;4.43;;;2.70;;
48002;SDS011;33768;48.578;11.574;2023-09-07T11:24:59;8.20;;;2.97;;
48002;SDS011;33768;48.578;11.574;2023-09-07T11:28:05;3.83;;;2.40;;
48002;SDS011;33768;48.578;11.574;2023-09-07T11:31:09;4.82;;;2.78;;
48002;SDS011;33768;48.578;11.574;2023-09-07T11:34:14;8.70;;;2.50;;
48002;SDS011;33768;48.578;11.574;2023-09-07T11:37:24;6.35;;;2.80;;
48002;SDS011;33768;48.578;11.574;2023-09-07T11:40:29;5.28;;;3.33;;
48002;SDS011;33768;48.578;11.574;2023-09-07T11:43:34;3.53;;;2.60;;
48002;SDS011;33768;48.578;11.574;2023-09-07T11:46:38;7.80;;;3.10;;
48002;SDS011;33768;48.578;11.574;2023-09-07T11:49:43;6.18;;;3.40;;
48002;SDS011;33768;48.578;11.574;2023-09-07T11:52:47;4.95;;;3.15;;
48002;SDS011;33768;48.578;11.574;2023-09-07T11:55:51;3.28;;;2.88;;
48002;SDS011;33768;48.578;11.574;2023-09-07T11:58:55;5.25;;;2.90;;
48002;SDS011;33768;48.578;11.574;2023-09-07T12:01:59;3.63;;;2.70;;
48002;SDS011;33768;48.578;11.574;2023-09-07T12:05:04;5.07;;;2.80;;
48002;SDS011;33768;48.578;11.574;2023-09-07T12:08:14;15.73;;;3.45;;
48002;SDS011;33768;48.578;11.574;2023-09-07T12:11:18;15.73;;;3.40;;
48002;SDS011;33768;48.578;11.574;2023-09-07T12:14:23;6.88;;;2.85;;
48002;SDS011;33768;48.578;11.574;2023-09-07T12:17:26;8.77;;;2.97;;
48002;SDS011;33768;48.578;11.574;2023-09-07T12:20:30;29.38;;;4.45;;
48002;SDS011;33768;48.578;11.574;2023-09-07T12:23:35;53.25;;;4.90;;
48002;SDS011;33768;48.578;11.574;2023-09-07T12:26:39;6.22;;;2.75;;
48002;SDS011;33768;48.578;11.574;2023-09-07T12:29:42;4.03;;;2.17;;
48002;SDS011;33768;48.578;11.574;2023-09-07T12:32:47;6.55;;;2.60;;
48002;SDS011;33768;48.578;11.574;2023-09-07T12:35:51;10.57;;;3.20;;
48002;SDS011;33768;48.578;11.574;2023-09-07T12:38:55;4.10;;;2.78;;
48002;SDS011;33768;48.578;11.574;2023-09-07T12:42:05;4.63;;;2.63;;
48002;SDS011;33768;48.578;11.574;2023-09-07T12:45:09;5.15;;;3.35;;
48002;SDS011;33768;48.578;11.574;2023-09-07T12:48:19;6.03;;;2.42;;
48002;SDS011;33768;48.578;11.574;2023-09-07T12:51:24;6.00;;;2.80;;
48002;SDS011;33768;48.578;11.574;2023-09-07T12:54:28;3.90;;;2.80;;
48002;SDS011;33768;48.578;11.574;2023-09-07T12:57:32;7.35;;;2.97;;
48002;SDS011;33768;48.578;11.574;2023-09-07T13:00:36;32.95;;;4.55;;
48002;SDS011;33768;48.578;11.574;2023-09-07T13:03:40;5.25;;;2.90;;
48002;SDS011;33768;48.578;11.574;2023-09-07T13:06:45;10.40;;;3.42;;
48002;SDS011;33768;48.578;11.574;2023-09-07T13:09:48;5.15;;;2.92;;
48002;SDS011;33768;48.578;11.574;2023-09-07T13:12:53;10.48;;;3.10;;
48002;SDS011;33768;48.578;11.574;2023-09-07T13:15:58;4.78;;;2.92;;
48002;SDS011;33768;48.578;11.574;2023-09-07T13:19:02;4.70;;;2.80;;
48002;SDS011;33768;48.578;11.574;2023-09-07T13:22:06;5.65;;;2.72;;
48002;SDS011;33768;48.578;11.574;2023-09-07T13:25:10;2.90;;;2.50;;
48002;SDS011;33768;48.578;11.574;2023-09-07T13:28:14;26.30;;;3.63;;
48002;SDS011;33768;48.578;11.574;2023-09-07T13:31:19;3.83;;;2.45;;
48002;SDS011;33768;48.578;11.574;2023-09-07T13:34:23;3.50;;;3.05;;
48002;SDS011;33768;48.578;11.574;2023-09-07T13:37:27;5.10;;;2.90;;
48002;SDS011;33768;48.578;11.574;2023-09-07T13:40:31;4.68;;;2.83;;
48002;SDS011;33768;48.578;11.574;2023-09-07T13:43:35;5.78;;;3.00;;
48002;SDS011;33768;48.578;11.574;2023-09-07T13:46:39;4.00;;;3.15;;
48002;SDS011;33768;48.578;11.574;2023-09-07T13:49:43;4.03;;;2.90;;
48002;SDS011;33768;48.578;11.574;2023-09-07T13:52:47;4.63;;;3.08;;
48002;SDS011;33768;48.578;11.574;2023-09-07T13:55:51;5.07;;;2.85;;
48002;SDS011;33768;48.578;11.574;2023-09-07T13:58:56;4.05;;;2.55;;
48002;SDS011;33768;48.578;11.574;2023-09-07T14:02:00;3.72;;;2.90;;
48002;SDS011;33768;48.578;11.574;2023-09-07T14:05:04;6.55;;;2.53;;
48002;SDS011;33768;48.578;11.574;2023-09-07T14:08:08;4.13;;;3.30;;
48002;SDS011;33768;48.578;11.574;2023-09-07T14:11:12;10.13;;;2.97;;
48002;SDS011;33768;48.578;11.574;2023-09-07T14:14:16;4.85;;;2.60;;
48002;SDS011;33768;48.578;11.574;2023-09-07T14:17:21;4.80;;;2.92;;
48002;SDS011;33768;48.578;11.574;2023-09-07T14:20:25;6.45;;;3.05;;
48002;SDS011;33768;48.578;11.574;2023-09-07T14:23:29;10.93;;;3.35;;
48002;SDS011;33768;48.578;11.574;2023-09-07T14:26:33;5.70;;;3.05;;
48002;SDS011;33768;48.578;11.574;2023-09-07T14:29:38;18.15;;;3.88;;
48002;SDS011;33768;48.578;11.574;2023-09-07T14:32:42;4.28;;;2.88;;
48002;SDS011;33768;48.578;11.574;2023-09-07T14:35:46;3.97;;;2.83;;
48002;SDS011;33768;48.578;11.574;2023-09-07T14:38:50;5.65;;;2.67;;
48002;SDS011;33768;48.578;11.574;2023-09-07T14:41:55;4.80;;;2.97;;
48002;SDS011;33768;48.578;11.574;2023-09-07T14:44:59;6.97;;;3.40;;
48002;SDS011;33768;48.578;11.574;2023-09-07T14:48:06;4.32;;;2.83;;
48002;SDS011;33768;48.578;11.574;2023-09-07T14:51:10;6.32;;;3.30;;
48002;SDS011;33768;48.578;11.574;2023-09-07T14:54:14;3.95;;;3.03;;
48002;SDS011;33768;48.578;11.574;2023-09-07T14:57:18;23.40;;;3.97;;
48002;SDS011;33768;48.578;11.574;2023-09-07T15:00:22;24.75;;;4.07;;
48002;SDS011;33768;48.578;11.574;2023-09-07T15:03:26;7.30;;;2.90;;
48002;SDS011;33768;48.578;11.574;2023-09-07T15:06:30;3.70;;;2.97;;
48002;SDS011;33768;48.578;11.574;2023-09-07T15:09:36;3.20;;;2.78;;
48002;SDS011;33768;48.578;11.574;2023-09-07T15:12:40;58.55;;;6.93;;
48002;SDS011;33768;48.578;11.574;2023-09-07T15:15:44;6.93;;;3.65;;
48002;SDS011;33768;48.578;11.574;2023-09-07T15:18:49;5.82;;;3.75;;
48002;SDS011;33768;48.578;11.574;2023-09-07T15:21:55;6.00;;;3.00;;
48002;SDS011;33768;48.578;11.574;2023-09-07T15:24:59;8.35;;;3.00;;
48002;SDS011;33768;48.578;11.574;2023-09-07T15:28:04;5.20;;;2.90;;
48002;SDS011;33768;48.578;11.574;2023-09-07T15:31:12;3.85;;;3.13;;
48002;SDS011;33768;48.578;11.574;2023-09-07T15:34:16;8.98;;;3.33;;
48002;SDS011;33768;48.578;11.574;2023-09-07T15:37:20;7.82;;;3.17;;
48002;SDS011;33768;48.578;11.574;2023-09-07T15:40:24;5.53;;;3.00;;
48002;SDS011;33768;48.578;11.574;2023-09-07T15:43:28;18.52;;;4.63;;
48002;SDS011;33768;48.578;11.574;2023-09-07T15:46:32;31.40;;;5.00;;
48002;SDS011;33768;48.578;11.574;2023-09-07T15:49:36;6.90;;;3.55;;
48002;SDS011;33768;48.578;11.574;2023-09-07T15:52:43;5.45;;;3.72;;
48002;SDS011;33768;48.578;11.574;2023-09-07T15:55:50;5.43;;;3.35;;
48002;SDS011;33768;48.578;11.574;2023-09-07T15:58:54;6.20;;;3.05;;
48002;SDS011;33768;48.578;11.574;2023-09-07T16:01:58;3.92;;;3.22;;
48002;SDS011;33768;48.578;11.574;2023-09-07T16:05:02;7.88;;;3.03;;
48002;SDS011;33768;48.578;11.574;2023-09-07T16:08:07;5.18;;;3.28;;
48002;SDS011;33768;48.578;11.574;2023-09-07T16:11:11;7.50;;;3.33;;
48002;SDS011;33768;48.578;11.574;2023-09-07T16:14:16;5.97;;;3.35;;
48002;SDS011;33768;48.578;11.574;2023-09-07T16:17:20;5.57;;;3.17;;
48002;SDS011;33768;48.578;11.574;2023-09-07T16:20:24;14.15;;;3.47;;
48002;SDS011;33768;48.578;11.574;2023-09-07T16:23:28;11.75;;;3.40;;
48002;SDS011;33768;48.578;11.574;2023-09-07T16:26:33;6.30;;;3.28;;
48002;SDS011;33768;48.578;11.574;2023-09-07T16:29:37;48.13;;;6.13;;
48002;SDS011;33768;48.578;11.574;2023-09-07T16:32:41;21.55;;;4.95;;
48002;SDS011;33768;48.578;11.574;2023-09-07T16:35:48;62.28;;;6.15;;
48002;SDS011;33768;48.578;11.574;2023-09-07T16:38:52;26.40;;;4.30;;
48002;SDS011;33768;48.578;11.574;2023-09-07T16:41:56;7.18;;;3.38;;
48002;SDS011;33768;48.578;11.574;2023-09-07T16:45:00;6.38;;;3.47;;
48002;SDS011;33768;48.578;11.574;2023-09-07T16:48:05;33.35;;;4.72;;
48002;SDS011;33768;48.578;11.574;2023-09-07T16:51:09;65.60;;;6.13;;
48002;SDS011;33768;48.578;11.574;2023-09-07T16:54:13;15.70;;;3.90;;
48002;SDS011;33768;48.578;11.574;2023-09-07T16:57:18;7.63;;;3.53;;
48002;SDS011;33768;48.578;11.574;2023-09-07T17:00:22;6.20;;;3.60;;
48002;SDS011;33768;48.578;11.574;2023-09-07T17:03:26;5.53;;;3.67;;
48002;SDS011;33768;48.578;11.574;2023-09-07T17:06:30;5.27;;;4.00;;
48002;SDS011;33768;48.578;11.574;2023-09-07T17:09:35;8.47;;;4.90;;
48002;SDS011;33768;48.578;11.574;2023-09-07T17:12:40;9.97;;;4.73;;
48002;SDS011;33768;48.578;11.574;2023-09-07T17:15:50;13.77;;;5.13;;
48002;SDS011;33768;48.578;11.574;2023-09-07T17:18:55;7.10;;;4.63;;
48002;SDS011;33768;48.578;11.574;2023-09-07T17:22:00;19.67;;;5.37;;
48002;SDS011;33768;48.578;11.574;2023-09-07T17:25:05;11.17;;;4.30;;
48002;SDS011;33768;48.578;11.574;2023-09-07T17:28:09;6.80;;;3.97;;
48002;SDS011;33768;48.578;11.574;2023-09-07T17:31:13;9.80;;;3.80;;
48002;SDS011;33768;48.578;11.574;2023-09-07T17:34:18;4.97;;;3.73;;
48002;SDS011;33768;48.578;11.574;2023-09-07T17:37:22;4.67;;;3.63;;
48002;SDS011;33768;48.578;11.574;2023-09-07T17:40:26;8.20;;;4.07;;
48002;SDS011;33768;48.578;11.574;2023-09-07T17:43:30;4.13;;;3.73;;
48002;SDS011;33768;48.578;11.574;2023-09-07T17:46:35;6.43;;;4.33;;
48002;SDS011;33768;48.578;11.574;2023-09-07T17:49:40;7.00;;;4.00;;
48002;SDS011;33768;48.578;11.574;2023-09-07T17:52:44;7.60;;;4.00;;
48002;SDS011;33768;48.578;11.574;2023-09-07T17:55:48;5.87;;;3.80;;
48002;SDS011;33768;48.578;11.574;2023-09-07T17:58:52;6.40;;;3.63;;
48002;SDS011;33768;48.578;11.574;2023-09-07T18:01:56;5.63;;;4.00;;
48002;SDS011;33768;48.578;11.574;2023-09-07T18:05:00;5.37;;;3.57;;
48002;SDS011;33768;48.578;11.574;2023-09-07T18:08:05;7.07;;;4.53;;
48002;SDS011;33768;48.578;11.574;2023-09-07T18:11:09;7.10;;;3.87;;
48002;SDS011;33768;48.578;11.574;2023-09-07T18:14:13;5.43;;;3.80;;